sensor_id;sensor_type;location;lat;lon;timestamp;P1;durP1;ratioP1;P2;durP2;ratioP2
20034;SDS011;10178;48.034;9.800;2023-07-02T00:01:18;3.10;;;1.50;;
20034;SDS011;10178;48.034;9.800;2023-07-02T00:03:44;1.80;;;1.70;;
20034;SDS011;10178;48.034;9.800;2023-07-02T00:06:09;5.50;;;2.40;;
20034;SDS011;10178;48.034;9.800;2023-07-02T00:08:35;4.20;;;2.20;;
20034;SDS011;10178;48.034;9.800;2023-07-02T00:11:01;4.97;;;2.53;;
20034;SDS011;10178;48.034;9.800;2023-07-02T00:13:26;4.55;;;2.30;;
20034;SDS011;10178;48.034;9.800;2023-07-02T00:15:52;2.15;;;1.95;;
20034;SDS011;10178;48.034;9.800;2023-07-02T00:18:17;5.57;;;2.45;;
20034;SDS011;10178;48.034;9.800;2023-07-02T00:20:43;6.55;;;2.55;;
20034;SDS011;10178;48.034;9.800;2023-07-02T00:23:08;7.13;;;2.30;;
20034;SDS011;10178;48.034;9.800;2023-07-02T00:25:35;2.88;;;2.30;;
20034;SDS011;10178;48.034;9.800;2023-07-02T00:28:01;6.00;;;2.38;;
20034;SDS011;10178;48.034;9.800;2023-07-02T00:30:27;1.75;;;1.65;;
20034;SDS011;10178;48.034;9.800;2023-07-02T00:32:53;5.70;;;1.52;;
20034;SDS011;10178;48.034;9.800;2023-07-02T00:35:18;1.40;;;1.30;;
20034;SDS011;10178;48.034;9.800;2023-07-02T00:37:44;1.10;;;1.10;;
20034;SDS011;10178;48.034;9.800;2023-07-02T00:40:09;1.90;;;1.65;;
20034;SDS011;10178;48.034;9.800;2023-07-02T00:42:35;3.03;;;1.45;;
20034;SDS011;10178;48.034;9.800;2023-07-02T00:45:01;1.27;;;1.20;;
20034;SDS011;10178;48.034;9.800;2023-07-02T00:47:28;1.92;;;1.50;;
20034;SDS011;10178;48.034;9.800;2023-07-02T00:49:55;1.50;;;1.23;;
20034;SDS011;10178;48.034;9.800;2023-07-02T00:52:20;1.50;;;1.27;;
20034;SDS011;10178;48.034;9.800;2023-07-02T00:54:48;1.98;;;1.80;;
20034;SDS011;10178;48.034;9.800;2023-07-02T00:57:14;1.40;;;1.30;;
20034;SDS011;10178;48.034;9.800;2023-07-02T00:59:40;1.45;;;1.35;;
20034;SDS011;10178;48.034;9.800;2023-07-02T01:02:05;1.25;;;1.08;;
20034;SDS011;10178;48.034;9.800;2023-07-02T01:04:31;1.25;;;1.15;;
20034;SDS011;10178;48.034;9.800;2023-07-02T01:06:57;2.20;;;1.13;;
20034;SDS011;10178;48.034;9.800;2023-07-02T01:09:23;1.52;;;1.42;;
20034;SDS011;10178;48.034;9.800;2023-07-02T01:11:55;1.20;;;1.10;;
20034;SDS011;10178;48.034;9.800;2023-07-02T01:14:27;4.78;;;1.90;;
20034;SDS011;10178;48.034;9.800;2023-07-02T01:16:57;1.85;;;1.58;;
20034;SDS011;10178;48.034;9.800;2023-07-02T01:22:05;1.95;;;1.60;;
20034;SDS011;10178;48.034;9.800;2023-07-02T01:24:31;2.33;;;2.05;;
20034;SDS011;10178;48.034;9.800;2023-07-02T01:26:57;1.70;;;1.60;;
20034;SDS011;10178;48.034;9.800;2023-07-02T01:29:26;2.38;;;2.17;;
20034;SDS011;10178;48.034;9.800;2023-07-02T01:31:54;1.85;;;1.38;;
20034;SDS011;10178;48.034;9.800;2023-07-02T01:34:20;1.27;;;1.13;;
20034;SDS011;10178;48.034;9.800;2023-07-02T01:36:45;1.48;;;1.38;;
20034;SDS011;10178;48.034;9.800;2023-07-02T01:39:11;1.55;;;1.30;;
20034;SDS011;10178;48.034;9.800;2023-07-02T01:41:41;1.52;;;1.42;;
20034;SDS011;10178;48.034;9.800;2023-07-02T01:44:10;1.25;;;1.25;;
20034;SDS011;10178;48.034;9.800;2023-07-02T01:46:36;1.15;;;1.10;;
20034;SDS011;10178;48.034;9.800;2023-07-02T01:49:02;5.20;;;2.30;;
20034;SDS011;10178;48.034;9.800;2023-07-02T01:51:27;1.27;;;1.20;;
20034;SDS011;10178;48.034;9.800;2023-07-02T01:53:53;2.30;;;1.50;;
20034;SDS011;10178;48.034;9.800;2023-07-02T01:56:18;1.70;;;1.60;;
20034;SDS011;10178;48.034;9.800;2023-07-02T01:58:44;1.58;;;1.48;;
20034;SDS011;10178;48.034;9.800;2023-07-02T02:01:10;1.55;;;1.45;;
20034;SDS011;10178;48.034;9.800;2023-07-02T02:03:35;2.42;;;2.05;;
20034;SDS011;10178;48.034;9.800;2023-07-02T02:06:01;4.22;;;1.80;;
20034;SDS011;10178;48.034;9.800;2023-07-02T02:08:26;3.85;;;2.15;;
20034;SDS011;10178;48.034;9.800;2023-07-02T02:10:52;2.38;;;1.50;;
20034;SDS011;10178;48.034;9.800;2023-07-02T02:13:18;3.08;;;2.10;;
20034;SDS011;10178;48.034;9.800;2023-07-02T02:15:43;2.55;;;1.88;;
20034;SDS011;10178;48.034;9.800;2023-07-02T02:18:09;2.92;;;1.38;;
20034;SDS011;10178;48.034;9.800;2023-07-02T02:20:34;1.25;;;1.15;;
20034;SDS011;10178;48.034;9.800;2023-07-02T02:23:00;2.08;;;1.70;;
20034;SDS011;10178;48.034;9.800;2023-07-02T02:25:26;2.42;;;1.88;;
20034;SDS011;10178;48.034;9.800;2023-07-02T02:27:51;3.08;;;2.03;;
20034;SDS011;10178;48.034;9.800;2023-07-02T02:30:17;1.63;;;1.20;;
20034;SDS011;10178;48.034;9.800;2023-07-02T02:32:42;1.55;;;1.38;;
20034;SDS011;10178;48.034;9.800;2023-07-02T02:35:08;5.95;;;1.55;;
20034;SDS011;10178;48.034;9.800;2023-07-02T02:37:34;1.30;;;1.20;;
20034;SDS011;10178;48.034;9.800;2023-07-02T02:40:02;2.00;;;1.30;;
20034;SDS011;10178;48.034;9.800;2023-07-02T02:42:28;1.65;;;1.50;;
20034;SDS011;10178;48.034;9.800;2023-07-02T02:44:53;2.17;;;1.60;;
20034;SDS011;10178;48.034;9.800;2023-07-02T02:47:19;2.58;;;2.03;;
20034;SDS011;10178;48.034;9.800;2023-07-02T02:49:44;1.50;;;1.40;;
20034;SDS011;10178;48.034;9.800;2023-07-02T02:52:10;2.80;;;1.20;;
20034;SDS011;10178;48.034;9.800;2023-07-02T02:54:36;3.13;;;1.20;;
20034;SDS011;10178;48.034;9.800;2023-07-02T02:57:01;1.70;;;1.60;;
20034;SDS011;10178;48.034;9.800;2023-07-02T02:59:27;1.85;;;1.70;;
20034;SDS011;10178;48.034;9.800;2023-07-02T03:01:53;1.30;;;1.20;;
20034;SDS011;10178;48.034;9.800;2023-07-02T03:04:19;4.55;;;2.05;;
20034;SDS011;10178;48.034;9.800;2023-07-02T03:06:49;1.77;;;1.67;;
20034;SDS011;10178;48.034;9.800;2023-07-02T03:09:16;4.28;;;2.00;;
20034;SDS011;10178;48.034;9.800;2023-07-02T03:11:42;1.73;;;1.60;;
20034;SDS011;10178;48.034;9.800;2023-07-02T03:14:07;1.52;;;1.42;;
20034;SDS011;10178;48.034;9.800;2023-07-02T03:16:33;1.60;;;1.50;;
20034;SDS011;10178;48.034;9.800;2023-07-02T03:18:59;1.45;;;1.35;;
20034;SDS011;10178;48.034;9.800;2023-07-02T03:21:24;1.90;;;1.67;;
20034;SDS011;10178;48.034;9.800;2023-07-02T03:23:50;2.25;;;1.83;;
20034;SDS011;10178;48.034;9.800;2023-07-02T03:26:15;1.98;;;1.88;;
20034;SDS011;10178;48.034;9.800;2023-07-02T03:28:41;1.58;;;1.48;;
20034;SDS011;10178;48.034;9.800;2023-07-02T03:31:06;4.10;;;1.60;;
20034;SDS011;10178;48.034;9.800;2023-07-02T03:33:32;6.10;;;2.70;;
20034;SDS011;10178;48.034;9.800;2023-07-02T03:35:58;2.35;;;2.15;;
20034;SDS011;10178;48.034;9.800;2023-07-02T03:38:23;2.58;;;1.63;;
20034;SDS011;10178;48.034;9.800;2023-07-02T03:40:49;3.53;;;1.75;;
20034;SDS011;10178;48.034;9.800;2023-07-02T03:43:15;1.67;;;1.58;;
20034;SDS011;10178;48.034;9.800;2023-07-02T03:45:40;2.90;;;2.28;;
20034;SDS011;10178;48.034;9.800;2023-07-02T03:48:06;1.88;;;1.77;;
20034;SDS011;10178;48.034;9.800;2023-07-02T03:50:32;1.80;;;1.70;;
20034;SDS011;10178;48.034;9.800;2023-07-02T03:52:57;2.03;;;1.77;;
20034;SDS011;10178;48.034;9.800;2023-07-02T03:55:24;1.80;;;1.70;;
20034;SDS011;10178;48.034;9.800;2023-07-02T03:57:50;1.80;;;1.70;;
20034;SDS011;10178;48.034;9.800;2023-07-02T04:00:16;2.13;;;1.70;;
20034;SDS011;10178;48.034;9.800;2023-07-02T04:02:41;1.85;;;1.75;;
20034;SDS011;10178;48.034;9.800;2023-07-02T04:05:07;1.80;;;1.70;;
20034;SDS011;10178;48.034;9.800;2023-07-02T04:07:33;2.78;;;1.83;;
20034;SDS011;10178;48.034;9.800;2023-07-02T04:09:58;1.95;;;1.85;;
20034;SDS011;10178;48.034;9.800;2023-07-02T04:12:24;1.60;;;1.50;;
20034;SDS011;10178;48.034;9.800;2023-07-02T04:14:50;1.95;;;1.70;;
20034;SDS011;10178;48.034;9.800;2023-07-02T04:17:16;1.92;;;1.80;;
20034;SDS011;10178;48.034;9.800;2023-07-02T04:19:41;2.25;;;2.00;;
20034;SDS011;10178;48.034;9.800;2023-07-02T04:22:07;1.73;;;1.63;;
20034;SDS011;10178;48.034;9.800;2023-07-02T04:24:33;2.38;;;1.67;;
20034;SDS011;10178;48.034;9.800;2023-07-02T04:26:58;1.83;;;1.70;;
20034;SDS011;10178;48.034;9.800;2023-07-02T04:29:25;2.60;;;2.00;;
20034;SDS011;10178;48.034;9.800;2023-07-02T04:31:50;1.88;;;1.70;;
20034;SDS011;10178;48.034;9.800;2023-07-02T04:34:16;2.60;;;1.70;;
20034;SDS011;10178;48.034;9.800;2023-07-02T04:36:42;1.85;;;1.75;;
20034;SDS011;10178;48.034;9.800;2023-07-02T04:39:08;2.38;;;1.70;;
20034;SDS011;10178;48.034;9.800;2023-07-02T04:41:35;3.22;;;2.20;;
20034;SDS011;10178;48.034;9.800;2023-07-02T04:44:01;3.55;;;2.10;;
20034;SDS011;10178;48.034;9.800;2023-07-02T04:46:27;2.35;;;2.15;;
20034;SDS011;10178;48.034;9.800;2023-07-02T04:48:52;1.70;;;1.60;;
20034;SDS011;10178;48.034;9.800;2023-07-02T04:51:19;2.67;;;2.33;;
20034;SDS011;10178;48.034;9.800;2023-07-02T04:53:46;3.50;;;3.15;;
20034;SDS011;10178;48.034;9.800;2023-07-02T04:56:11;5.35;;;3.05;;
20034;SDS011;10178;48.034;9.800;2023-07-02T04:58:37;3.28;;;3.00;;
20034;SDS011;10178;48.034;9.800;2023-07-02T05:01:03;4.80;;;3.53;;
20034;SDS011;10178;48.034;9.800;2023-07-02T05:03:29;3.97;;;3.35;;
20034;SDS011;10178;48.034;9.800;2023-07-02T05:05:55;2.75;;;2.55;;
20034;SDS011;10178;48.034;9.800;2023-07-02T05:08:21;3.60;;;3.30;;
20034;SDS011;10178;48.034;9.800;2023-07-02T05:10:46;3.88;;;3.42;;
20034;SDS011;10178;48.034;9.800;2023-07-02T05:13:12;3.15;;;2.90;;
20034;SDS011;10178;48.034;9.800;2023-07-02T05:15:37;3.80;;;2.13;;
20034;SDS011;10178;48.034;9.800;2023-07-02T05:18:03;3.90;;;3.42;;
20034;SDS011;10178;48.034;9.800;2023-07-02T05:20:29;7.05;;;3.78;;
20034;SDS011;10178;48.034;9.800;2023-07-02T05:22:54;4.38;;;3.85;;
20034;SDS011;10178;48.034;9.800;2023-07-02T05:25:20;7.65;;;4.00;;
20034;SDS011;10178;48.034;9.800;2023-07-02T05:27:46;7.10;;;4.28;;
20034;SDS011;10178;48.034;9.800;2023-07-02T05:30:12;7.88;;;4.32;;
20034;SDS011;10178;48.034;9.800;2023-07-02T05:32:38;6.43;;;4.10;;
20034;SDS011;10178;48.034;9.800;2023-07-02T05:35:04;7.70;;;4.53;;
20034;SDS011;10178;48.034;9.800;2023-07-02T05:37:30;4.88;;;4.10;;
20034;SDS011;10178;48.034;9.800;2023-07-02T05:39:55;6.47;;;4.30;;
20034;SDS011;10178;48.034;9.800;2023-07-02T05:42:21;7.45;;;4.60;;
20034;SDS011;10178;48.034;9.800;2023-07-02T05:44:47;5.53;;;4.00;;
20034;SDS011;10178;48.034;9.800;2023-07-02T05:47:12;4.35;;;3.30;;
20034;SDS011;10178;48.034;9.800;2023-07-02T05:49:38;7.38;;;3.35;;
20034;SDS011;10178;48.034;9.800;2023-07-02T05:52:05;4.50;;;3.30;;
20034;SDS011;10178;48.034;9.800;2023-07-02T05:54:31;4.75;;;2.83;;
20034;SDS011;10178;48.034;9.800;2023-07-02T05:56:57;4.20;;;2.60;;
20034;SDS011;10178;48.034;9.800;2023-07-02T05:59:22;6.57;;;3.10;;
20034;SDS011;10178;48.034;9.800;2023-07-02T06:01:48;3.92;;;2.53;;
20034;SDS011;10178;48.034;9.800;2023-07-02T06:04:13;3.75;;;2.70;;
20034;SDS011;10178;48.034;9.800;2023-07-02T06:06:39;3.05;;;2.70;;
20034;SDS011;10178;48.034;9.800;2023-07-02T06:09:05;2.72;;;2.53;;
20034;SDS011;10178;48.034;9.800;2023-07-02T06:11:30;4.40;;;2.95;;
20034;SDS011;10178;48.034;9.800;2023-07-02T06:13:56;3.97;;;2.30;;
20034;SDS011;10178;48.034;9.800;2023-07-02T06:16:22;4.07;;;2.72;;
20034;SDS011;10178;48.034;9.800;2023-07-02T06:18:47;3.65;;;3.22;;
20034;SDS011;10178;48.034;9.800;2023-07-02T06:21:13;2.70;;;2.50;;
20034;SDS011;10178;48.034;9.800;2023-07-02T06:23:39;4.13;;;2.80;;
20034;SDS011;10178;48.034;9.800;2023-07-02T06:26:08;2.75;;;2.55;;
20034;SDS011;10178;48.034;9.800;2023-07-02T06:28:34;3.50;;;2.80;;
20034;SDS011;10178;48.034;9.800;2023-07-02T06:31:00;2.70;;;2.50;;
20034;SDS011;10178;48.034;9.800;2023-07-02T06:33:26;2.40;;;2.20;;
20034;SDS011;10178;48.034;9.800;2023-07-02T06:35:51;3.13;;;2.83;;
20034;SDS011;10178;48.034;9.800;2023-07-02T06:38:17;4.90;;;4.40;;
20034;SDS011;10178;48.034;9.800;2023-07-02T06:40:42;4.45;;;4.03;;
20034;SDS011;10178;48.034;9.800;2023-07-02T06:43:08;6.65;;;4.63;;
20034;SDS011;10178;48.034;9.800;2023-07-02T06:45:34;6.28;;;3.70;;
20034;SDS011;10178;48.034;9.800;2023-07-02T06:47:59;5.72;;;4.20;;
20034;SDS011;10178;48.034;9.800;2023-07-02T06:50:25;5.22;;;3.83;;
20034;SDS011;10178;48.034;9.800;2023-07-02T06:52:51;4.93;;;3.78;;
20034;SDS011;10178;48.034;9.800;2023-07-02T06:55:17;4.85;;;4.35;;
20034;SDS011;10178;48.034;9.800;2023-07-02T06:57:43;6.97;;;5.18;;
20034;SDS011;10178;48.034;9.800;2023-07-02T07:00:12;4.07;;;3.67;;
20034;SDS011;10178;48.034;9.800;2023-07-02T07:02:38;4.90;;;3.90;;
20034;SDS011;10178;48.034;9.800;2023-07-02T07:05:04;4.53;;;3.35;;
20034;SDS011;10178;48.034;9.800;2023-07-02T07:07:30;4.72;;;3.63;;
20034;SDS011;10178;48.034;9.800;2023-07-02T07:09:56;6.93;;;6.05;;
20034;SDS011;10178;48.034;9.800;2023-07-02T07:12:22;6.95;;;5.03;;
20034;SDS011;10178;48.034;9.800;2023-07-02T07:14:47;5.72;;;4.63;;
20034;SDS011;10178;48.034;9.800;2023-07-02T07:17:13;7.22;;;5.40;;
20034;SDS011;10178;48.034;9.800;2023-07-02T07:19:39;6.18;;;5.05;;
20034;SDS011;10178;48.034;9.800;2023-07-02T07:22:04;5.70;;;4.10;;
20034;SDS011;10178;48.034;9.800;2023-07-02T07:24:30;8.32;;;5.45;;
20034;SDS011;10178;48.034;9.800;2023-07-02T07:26:55;6.82;;;5.82;;
20034;SDS011;10178;48.034;9.800;2023-07-02T07:29:21;5.60;;;4.57;;
20034;SDS011;10178;48.034;9.800;2023-07-02T07:31:47;6.15;;;3.78;;
20034;SDS011;10178;48.034;9.800;2023-07-02T07:34:13;7.95;;;6.15;;
20034;SDS011;10178;48.034;9.800;2023-07-02T07:36:38;7.90;;;5.70;;
20034;SDS011;10178;48.034;9.800;2023-07-02T07:39:04;10.75;;;5.53;;
20034;SDS011;10178;48.034;9.800;2023-07-02T07:41:29;8.40;;;4.80;;
20034;SDS011;10178;48.034;9.800;2023-07-02T07:43:55;4.78;;;4.13;;
20034;SDS011;10178;48.034;9.800;2023-07-02T07:46:21;8.07;;;4.25;;
20034;SDS011;10178;48.034;9.800;2023-07-02T07:48:46;7.88;;;5.28;;
20034;SDS011;10178;48.034;9.800;2023-07-02T07:51:12;6.60;;;4.30;;
20034;SDS011;10178;48.034;9.800;2023-07-02T07:53:38;10.70;;;6.20;;
20034;SDS011;10178;48.034;9.800;2023-07-02T07:56:06;11.70;;;8.05;;
20034;SDS011;10178;48.034;9.800;2023-07-02T07:58:32;9.02;;;5.55;;
20034;SDS011;10178;48.034;9.800;2023-07-02T08:00:57;15.00;;;7.90;;
20034;SDS011;10178;48.034;9.800;2023-07-02T08:03:23;11.50;;;7.57;;
20034;SDS011;10178;48.034;9.800;2023-07-02T08:05:50;10.15;;;6.90;;
20034;SDS011;10178;48.034;9.800;2023-07-02T08:08:15;8.48;;;6.78;;
20034;SDS011;10178;48.034;9.800;2023-07-02T08:10:41;13.23;;;9.00;;
20034;SDS011;10178;48.034;9.800;2023-07-02T08:13:07;17.55;;;10.93;;
20034;SDS011;10178;48.034;9.800;2023-07-02T08:15:33;12.20;;;8.20;;
20034;SDS011;10178;48.034;9.800;2023-07-02T08:17:59;18.70;;;10.80;;
20034;SDS011;10178;48.034;9.800;2023-07-02T08:20:25;20.88;;;12.70;;
20034;SDS011;10178;48.034;9.800;2023-07-02T08:22:50;18.77;;;11.68;;
20034;SDS011;10178;48.034;9.800;2023-07-02T08:25:17;16.83;;;11.30;;
20034;SDS011;10178;48.034;9.800;2023-07-02T08:27:43;19.10;;;12.48;;
20034;SDS011;10178;48.034;9.800;2023-07-02T08:30:09;17.08;;;11.93;;
20034;SDS011;10178;48.034;9.800;2023-07-02T08:32:35;19.83;;;13.75;;
20034;SDS011;10178;48.034;9.800;2023-07-02T08:38:23;18.00;;;11.30;;
20034;SDS011;10178;48.034;9.800;2023-07-02T08:40:49;24.00;;;13.10;;
20034;SDS011;10178;48.034;9.800;2023-07-02T08:43:14;22.50;;;12.88;;
20034;SDS011;10178;48.034;9.800;2023-07-02T08:45:43;26.58;;;15.63;;
20034;SDS011;10178;48.034;9.800;2023-07-02T08:48:10;21.77;;;12.32;;
20034;SDS011;10178;48.034;9.800;2023-07-02T08:50:36;25.58;;;13.75;;
20034;SDS011;10178;48.034;9.800;2023-07-02T08:53:02;23.85;;;13.73;;
20034;SDS011;10178;48.034;9.800;2023-07-02T08:55:28;24.27;;;14.45;;
20034;SDS011;10178;48.034;9.800;2023-07-02T08:57:55;19.52;;;12.27;;
20034;SDS011;10178;48.034;9.800;2023-07-02T09:00:25;22.33;;;13.38;;
20034;SDS011;10178;48.034;9.800;2023-07-02T09:02:56;23.83;;;15.48;;
20034;SDS011;10178;48.034;9.800;2023-07-02T09:05:21;20.15;;;13.20;;
20034;SDS011;10178;48.034;9.800;2023-07-02T09:07:47;18.05;;;12.68;;
20034;SDS011;10178;48.034;9.800;2023-07-02T09:10:30;28.45;;;15.93;;
20034;SDS011;10178;48.034;9.800;2023-07-02T09:13:03;22.98;;;13.55;;
20034;SDS011;10178;48.034;9.800;2023-07-02T09:15:34;20.67;;;13.57;;
20034;SDS011;10178;48.034;9.800;2023-07-02T09:18:01;22.05;;;13.95;;
20034;SDS011;10178;48.034;9.800;2023-07-02T09:20:32;18.70;;;12.88;;
20034;SDS011;10178;48.034;9.800;2023-07-02T09:22:58;25.48;;;14.18;;
20034;SDS011;10178;48.034;9.800;2023-07-02T09:25:33;22.95;;;14.88;;
20034;SDS011;10178;48.034;9.800;2023-07-02T09:28:01;26.27;;;15.88;;
20034;SDS011;10178;48.034;9.800;2023-07-02T09:30:27;21.38;;;14.23;;
20034;SDS011;10178;48.034;9.800;2023-07-02T09:32:53;24.77;;;16.20;;
20034;SDS011;10178;48.034;9.800;2023-07-02T09:35:19;26.48;;;14.82;;
20034;SDS011;10178;48.034;9.800;2023-07-02T09:37:45;22.80;;;14.55;;
20034;SDS011;10178;48.034;9.800;2023-07-02T09:40:11;22.92;;;15.80;;
20034;SDS011;10178;48.034;9.800;2023-07-02T09:42:38;24.38;;;15.32;;
20034;SDS011;10178;48.034;9.800;2023-07-02T09:45:07;23.05;;;15.10;;
20034;SDS011;10178;48.034;9.800;2023-07-02T09:47:34;23.98;;;15.25;;
20034;SDS011;10178;48.034;9.800;2023-07-02T09:50:03;25.95;;;14.93;;
20034;SDS011;10178;48.034;9.800;2023-07-02T09:52:33;28.02;;;15.60;;
20034;SDS011;10178;48.034;9.800;2023-07-02T09:55:00;24.67;;;14.57;;
20034;SDS011;10178;48.034;9.800;2023-07-02T09:57:26;21.70;;;15.00;;
20034;SDS011;10178;48.034;9.800;2023-07-02T09:59:53;22.92;;;15.50;;
20034;SDS011;10178;48.034;9.800;2023-07-02T10:02:18;20.50;;;13.98;;
20034;SDS011;10178;48.034;9.800;2023-07-02T10:04:45;21.08;;;14.48;;
20034;SDS011;10178;48.034;9.800;2023-07-02T10:07:12;23.25;;;15.25;;
20034;SDS011;10178;48.034;9.800;2023-07-02T10:09:50;23.98;;;14.93;;
20034;SDS011;10178;48.034;9.800;2023-07-02T10:12:19;23.63;;;15.18;;
20034;SDS011;10178;48.034;9.800;2023-07-02T10:14:47;22.77;;;14.55;;
20034;SDS011;10178;48.034;9.800;2023-07-02T10:17:24;25.35;;;16.33;;
20034;SDS011;10178;48.034;9.800;2023-07-02T10:19:53;25.48;;;17.10;;
20034;SDS011;10178;48.034;9.800;2023-07-02T10:22:20;27.52;;;16.33;;
20034;SDS011;10178;48.034;9.800;2023-07-02T10:24:58;23.77;;;15.55;;
20034;SDS011;10178;48.034;9.800;2023-07-02T10:27:37;25.38;;;15.82;;
20034;SDS011;10178;48.034;9.800;2023-07-02T10:30:05;26.65;;;15.75;;
20034;SDS011;10178;48.034;9.800;2023-07-02T10:32:35;25.67;;;15.30;;
20034;SDS011;10178;48.034;9.800;2023-07-02T10:35:24;27.50;;;16.42;;
20034;SDS011;10178;48.034;9.800;2023-07-02T10:37:50;25.05;;;16.85;;
20034;SDS011;10178;48.034;9.800;2023-07-02T10:40:16;27.92;;;16.38;;
20034;SDS011;10178;48.034;9.800;2023-07-02T10:42:45;28.50;;;18.17;;
20034;SDS011;10178;48.034;9.800;2023-07-02T10:45:15;27.13;;;17.27;;
20034;SDS011;10178;48.034;9.800;2023-07-02T10:47:41;36.22;;;18.05;;
20034;SDS011;10178;48.034;9.800;2023-07-02T10:50:17;25.65;;;16.08;;
20034;SDS011;10178;48.034;9.800;2023-07-02T10:52:44;26.30;;;17.48;;
20034;SDS011;10178;48.034;9.800;2023-07-02T10:55:10;25.60;;;17.63;;
20034;SDS011;10178;48.034;9.800;2023-07-02T10:57:40;26.25;;;16.58;;
20034;SDS011;10178;48.034;9.800;2023-07-02T11:00:06;27.63;;;17.23;;
20034;SDS011;10178;48.034;9.800;2023-07-02T11:02:36;27.65;;;17.15;;
20034;SDS011;10178;48.034;9.800;2023-07-02T11:05:02;25.95;;;18.27;;
20034;SDS011;10178;48.034;9.800;2023-07-02T11:07:32;25.52;;;17.88;;
20034;SDS011;10178;48.034;9.800;2023-07-02T11:09:58;25.83;;;17.58;;
20034;SDS011;10178;48.034;9.800;2023-07-02T11:12:29;27.95;;;18.02;;
20034;SDS011;10178;48.034;9.800;2023-07-02T11:15:06;26.80;;;17.15;;
20034;SDS011;10178;48.034;9.800;2023-07-02T11:17:33;24.50;;;15.82;;
20034;SDS011;10178;48.034;9.800;2023-07-02T11:19:58;27.30;;;17.35;;
20034;SDS011;10178;48.034;9.800;2023-07-02T11:22:31;30.05;;;18.38;;
20034;SDS011;10178;48.034;9.800;2023-07-02T11:24:57;27.20;;;16.77;;
20034;SDS011;10178;48.034;9.800;2023-07-02T11:28:01;26.67;;;16.30;;
20034;SDS011;10178;48.034;9.800;2023-07-02T11:30:27;25.20;;;16.67;;
20034;SDS011;10178;48.034;9.800;2023-07-02T11:32:53;27.52;;;16.92;;
20034;SDS011;10178;48.034;9.800;2023-07-02T11:35:19;26.15;;;16.88;;
20034;SDS011;10178;48.034;9.800;2023-07-02T11:37:45;20.85;;;14.90;;
20034;SDS011;10178;48.034;9.800;2023-07-02T11:40:13;25.60;;;16.48;;
20034;SDS011;10178;48.034;9.800;2023-07-02T11:42:40;25.23;;;16.27;;
20034;SDS011;10178;48.034;9.800;2023-07-02T11:45:06;23.10;;;15.18;;
20034;SDS011;10178;48.034;9.800;2023-07-02T11:47:32;23.23;;;14.93;;
20034;SDS011;10178;48.034;9.800;2023-07-02T11:49:57;22.45;;;14.60;;
20034;SDS011;10178;48.034;9.800;2023-07-02T11:52:26;24.17;;;14.70;;
20034;SDS011;10178;48.034;9.800;2023-07-02T11:54:51;24.98;;;14.77;;
20034;SDS011;10178;48.034;9.800;2023-07-02T11:57:17;21.08;;;14.90;;
20034;SDS011;10178;48.034;9.800;2023-07-02T11:59:42;21.17;;;14.70;;
20034;SDS011;10178;48.034;9.800;2023-07-02T12:02:08;23.33;;;15.15;;
20034;SDS011;10178;48.034;9.800;2023-07-02T12:04:34;22.23;;;14.15;;
20034;SDS011;10178;48.034;9.800;2023-07-02T12:06:59;22.85;;;14.10;;
20034;SDS011;10178;48.034;9.800;2023-07-02T12:09:28;21.45;;;14.07;;
20034;SDS011;10178;48.034;9.800;2023-07-02T12:11:54;22.98;;;13.65;;
20034;SDS011;10178;48.034;9.800;2023-07-02T12:14:20;20.77;;;13.73;;
20034;SDS011;10178;48.034;9.800;2023-07-02T12:16:45;20.27;;;13.70;;
20034;SDS011;10178;48.034;9.800;2023-07-02T12:19:11;21.20;;;13.77;;
20034;SDS011;10178;48.034;9.800;2023-07-02T12:21:36;21.60;;;13.70;;
20034;SDS011;10178;48.034;9.800;2023-07-02T12:24:02;17.08;;;12.80;;
20034;SDS011;10178;48.034;9.800;2023-07-02T12:26:28;19.92;;;13.13;;
20034;SDS011;10178;48.034;9.800;2023-07-02T12:28:54;20.17;;;12.75;;
20034;SDS011;10178;48.034;9.800;2023-07-02T12:31:19;20.30;;;12.68;;
20034;SDS011;10178;48.034;9.800;2023-07-02T12:33:45;18.55;;;13.35;;
20034;SDS011;10178;48.034;9.800;2023-07-02T12:36:11;20.20;;;12.77;;
20034;SDS011;10178;48.034;9.800;2023-07-02T12:38:37;16.80;;;12.07;;
20034;SDS011;10178;48.034;9.800;2023-07-02T12:41:03;16.15;;;12.48;;
20034;SDS011;10178;48.034;9.800;2023-07-02T12:43:28;19.75;;;13.43;;
20034;SDS011;10178;48.034;9.800;2023-07-02T12:45:54;17.75;;;12.27;;
20034;SDS011;10178;48.034;9.800;2023-07-02T12:48:19;17.65;;;12.52;;
20034;SDS011;10178;48.034;9.800;2023-07-02T12:50:58;17.48;;;12.85;;
20034;SDS011;10178;48.034;9.800;2023-07-02T12:53:25;19.40;;;12.07;;
20034;SDS011;10178;48.034;9.800;2023-07-02T12:55:51;19.50;;;12.80;;
20034;SDS011;10178;48.034;9.800;2023-07-02T12:58:17;16.08;;;11.63;;
20034;SDS011;10178;48.034;9.800;2023-07-02T13:00:43;17.17;;;12.13;;
20034;SDS011;10178;48.034;9.800;2023-07-02T13:03:10;17.10;;;12.25;;
20034;SDS011;10178;48.034;9.800;2023-07-02T13:05:37;15.18;;;11.30;;
20034;SDS011;10178;48.034;9.800;2023-07-02T13:08:03;15.38;;;10.73;;
20034;SDS011;10178;48.034;9.800;2023-07-02T13:10:29;14.35;;;11.10;;
20034;SDS011;10178;48.034;9.800;2023-07-02T13:12:55;17.13;;;11.70;;
20034;SDS011;10178;48.034;9.800;2023-07-02T13:15:21;15.43;;;10.70;;
20034;SDS011;10178;48.034;9.800;2023-07-02T13:17:46;16.48;;;10.80;;
20034;SDS011;10178;48.034;9.800;2023-07-02T13:20:12;16.52;;;10.43;;
20034;SDS011;10178;48.034;9.800;2023-07-02T13:22:38;14.52;;;10.93;;
20034;SDS011;10178;48.034;9.800;2023-07-02T13:25:04;15.65;;;10.50;;
20034;SDS011;10178;48.034;9.800;2023-07-02T13:27:30;14.93;;;10.60;;
20034;SDS011;10178;48.034;9.800;2023-07-02T13:29:56;16.33;;;10.73;;
20034;SDS011;10178;48.034;9.800;2023-07-02T13:32:21;17.40;;;10.90;;
20034;SDS011;10178;48.034;9.800;2023-07-02T13:34:47;14.40;;;10.43;;
20034;SDS011;10178;48.034;9.800;2023-07-02T13:37:13;15.60;;;11.02;;
20034;SDS011;10178;48.034;9.800;2023-07-02T13:39:42;14.75;;;11.20;;
20034;SDS011;10178;48.034;9.800;2023-07-02T13:42:08;15.60;;;11.00;;
20034;SDS011;10178;48.034;9.800;2023-07-02T13:44:34;18.17;;;11.32;;
20034;SDS011;10178;48.034;9.800;2023-07-02T13:47:00;15.65;;;10.70;;
20034;SDS011;10178;48.034;9.800;2023-07-02T13:49:25;15.77;;;11.13;;
20034;SDS011;10178;48.034;9.800;2023-07-02T13:51:51;16.85;;;11.10;;
20034;SDS011;10178;48.034;9.800;2023-07-02T13:54:17;16.13;;;11.60;;
20034;SDS011;10178;48.034;9.800;2023-07-02T13:56:43;15.95;;;10.88;;
20034;SDS011;10178;48.034;9.800;2023-07-02T13:59:10;16.83;;;10.98;;
20034;SDS011;10178;48.034;9.800;2023-07-02T14:01:35;16.15;;;11.10;;
20034;SDS011;10178;48.034;9.800;2023-07-02T14:04:02;17.33;;;10.50;;
20034;SDS011;10178;48.034;9.800;2023-07-02T14:06:28;17.35;;;11.13;;
20034;SDS011;10178;48.034;9.800;2023-07-02T14:08:54;15.45;;;10.85;;
20034;SDS011;10178;48.034;9.800;2023-07-02T14:11:20;18.77;;;11.48;;
20034;SDS011;10178;48.034;9.800;2023-07-02T14:13:46;17.38;;;10.88;;
20034;SDS011;10178;48.034;9.800;2023-07-02T14:16:12;16.50;;;11.32;;
20034;SDS011;10178;48.034;9.800;2023-07-02T14:18:38;19.67;;;12.10;;
20034;SDS011;10178;48.034;9.800;2023-07-02T14:21:04;17.73;;;10.98;;
20034;SDS011;10178;48.034;9.800;2023-07-02T14:23:30;15.73;;;10.55;;
20034;SDS011;10178;48.034;9.800;2023-07-02T14:25:55;15.93;;;10.80;;
20034;SDS011;10178;48.034;9.800;2023-07-02T14:28:21;14.00;;;10.18;;
20034;SDS011;10178;48.034;9.800;2023-07-02T14:30:46;12.85;;;9.88;;
20034;SDS011;10178;48.034;9.800;2023-07-02T14:33:13;14.35;;;10.40;;
20034;SDS011;10178;48.034;9.800;2023-07-02T14:35:40;15.32;;;9.60;;
20034;SDS011;10178;48.034;9.800;2023-07-02T14:38:05;14.63;;;10.57;;